Time;durP1;ratioP1;P1;durP2;ratioP2;P2;SDS_P1;SDS_P2;PMS_P1;PMS_P2;Temp;Humidity;BMP_temperature;BMP_pressure;BME280_temperature;BME280_humidity;BME280_pressure;Samples;Min_cycle;Max_cycle;Signal;HPM_P1;HPM_P2
2024/03/11 00:01:35;;;;;;;0.00;0.00;;;;;;;;;;5096789;28;20023;-66
2024/03/11 00:04:00;;;;;;;0.10;0.10;;;;;;;;;;5113986;28;20247;-66
2024/03/11 00:06:25;;;;;;;0.00;0.00;;;;;;;;;;5114262;28;20016;-66
2024/03/11 00:08:52;;;;;;;0.00;0.00;;;;;;;;;;5114239;28;20043;-66
2024/03/11 00:11:18;;;;;;;0.20;0.20;;;;;;;;;;5113854;28;20244;-66
2024/03/11 00:13:43;;;;;;;0.10;0.10;;;;;;;;;;5114124;28;20020;-67
2024/03/11 00:16:09;;;;;;;0.10;0.10;;;;;;;;;;5101195;28;20046;-66
2024/03/11 00:18:34;;;;;;;0.03;0.03;;;;;;;;;;5093115;28;20044;-66
2024/03/11 00:20:59;;;;;;;0.10;0.10;;;;;;;;;;5093495;28;20040;-66
2024/03/11 00:23:25;;;;;;;0.00;0.00;;;;;;;;;;5094598;28;20287;-66
2024/03/11 00:25:50;;;;;;;0.00;0.00;;;;;;;;;;5100847;28;20294;-66
2024/03/11 00:28:17;;;;;;;0.10;0.10;;;;;;;;;;5095700;28;20023;-66
2024/03/11 00:30:43;;;;;;;0.00;0.00;;;;;;;;;;5113022;28;20483;-66
2024/03/11 00:33:09;;;;;;;0.00;0.00;;;;;;;;;;5113216;28;20027;-66
2024/03/11 00:35:35;;;;;;;0.10;0.10;;;;;;;;;;5112884;28;20027;-66
2024/03/11 00:38:00;;;;;;;0.10;0.10;;;;;;;;;;5108117;28;20412;-66
2024/03/11 00:40:25;;;;;;;1.35;1.02;;;;;;;;;;5093134;28;20020;-66
2024/03/11 00:42:51;;;;;;;0.00;0.00;;;;;;;;;;5104044;28;20495;-66
2024/03/11 00:45:18;;;;;;;0.08;0.08;;;;;;;;;;5113200;28;20084;-66
2024/03/11 00:47:45;;;;;;;0.10;0.10;;;;;;;;;;5112675;28;20026;-66
2024/03/11 00:50:12;;;;;;;0.28;0.28;;;;;;;;;;5085668;28;20494;-66
2024/03/11 00:52:37;;;;;;;0.10;0.10;;;;;;;;;;5100025;28;20023;-66
2024/03/11 00:55:03;;;;;;;0.00;0.00;;;;;;;;;;5112456;28;20110;-66
2024/03/11 00:57:29;;;;;;;0.10;0.10;;;;;;;;;;5108296;28;20035;-66
2024/03/11 00:59:55;;;;;;;0.13;0.13;;;;;;;;;;5093285;28;20028;-66
2024/03/11 01:02:22;;;;;;;0.40;0.40;;;;;;;;;;5093198;28;20506;-66
2024/03/11 01:04:47;;;;;;;0.10;0.10;;;;;;;;;;5093319;28;20556;-64
2024/03/11 01:07:13;;;;;;;0.07;0.07;;;;;;;;;;5101438;28;20110;-64
2024/03/11 01:09:38;;;;;;;0.10;0.10;;;;;;;;;;5100679;28;20034;-64
2024/03/11 01:12:03;;;;;;;0.10;0.10;;;;;;;;;;5107740;28;20031;-63
2024/03/11 01:14:30;;;;;;;0.10;0.10;;;;;;;;;;5112301;28;20065;-64
2024/03/11 01:16:55;;;;;;;0.00;0.00;;;;;;;;;;5112821;28;20471;-63
2024/03/11 01:19:21;;;;;;;0.00;0.00;;;;;;;;;;5112404;28;20046;-64
2024/03/11 01:21:49;;;;;;;0.00;0.00;;;;;;;;;;5103504;28;20020;-64
2024/03/11 01:24:16;;;;;;;0.60;0.55;;;;;;;;;;5096383;28;20035;-64
2024/03/11 01:26:42;;;;;;;0.00;0.00;;;;;;;;;;5105503;28;20028;-64
2024/03/11 01:29:07;;;;;;;0.00;0.00;;;;;;;;;;5110928;28;20411;-64
2024/03/11 01:31:32;;;;;;;0.00;0.00;;;;;;;;;;5108575;28;20031;-64
2024/03/11 01:33:59;;;;;;;0.50;0.20;;;;;;;;;;5092674;28;20028;-64
2024/03/11 01:36:24;;;;;;;0.05;0.05;;;;;;;;;;5103232;28;20030;-64
2024/03/11 01:38:50;;;;;;;0.10;0.10;;;;;;;;;;5099215;28;20020;-64
2024/03/11 01:41:19;;;;;;;0.00;0.00;;;;;;;;;;5103126;28;20478;-64
2024/03/11 01:43:45;;;;;;;0.00;0.00;;;;;;;;;;5116112;28;20806;-64
2024/03/11 01:46:10;;;;;;;0.03;0.03;;;;;;;;;;5116264;28;20387;-64
2024/03/11 01:48:36;;;;;;;0.10;0.10;;;;;;;;;;5106724;28;20027;-64
2024/03/11 01:51:03;;;;;;;0.10;0.10;;;;;;;;;;5107785;28;20267;-64
2024/03/11 01:53:29;;;;;;;0.10;0.10;;;;;;;;;;5109543;28;20468;-64
2024/03/11 01:55:54;;;;;;;0.00;0.00;;;;;;;;;;5097054;28;20032;-64
2024/03/11 01:58:20;;;;;;;0.10;0.10;;;;;;;;;;5096380;28;20016;-64
2024/03/11 02:00:46;;;;;;;0.00;0.00;;;;;;;;;;5095899;28;20056;-64
2024/03/11 02:03:11;;;;;;;0.00;0.00;;;;;;;;;;5095960;28;20020;-64
2024/03/11 02:05:45;;;;;;;0.00;0.00;;;;;;;;;;5106871;28;20024;-64
2024/03/11 02:08:10;;;;;;;0.00;0.00;;;;;;;;;;5115616;28;20051;-64
2024/03/11 02:10:36;;;;;;;0.00;0.00;;;;;;;;;;5113911;28;20014;-64
2024/03/11 02:13:02;;;;;;;0.00;0.00;;;;;;;;;;5113514;28;20259;-64
2024/03/11 02:15:27;;;;;;;0.22;0.22;;;;;;;;;;5095919;28;20024;-64
2024/03/11 02:17:53;;;;;;;0.00;0.00;;;;;;;;;;5095480;28;20035;-64
2024/03/11 02:20:19;;;;;;;0.00;0.00;;;;;;;;;;5095226;28;20056;-64
2024/03/11 02:22:53;;;;;;;0.20;0.20;;;;;;;;;;5112413;28;20020;-64
2024/03/11 02:25:20;;;;;;;0.00;0.00;;;;;;;;;;5115528;28;20595;-64
2024/03/11 02:27:46;;;;;;;0.10;0.10;;;;;;;;;;5113687;28;20027;-64
2024/03/11 02:30:11;;;;;;;0.10;0.10;;;;;;;;;;5115026;28;20030;-64
2024/03/11 02:32:37;;;;;;;0.03;0.03;;;;;;;;;;5115310;28;20531;-64
2024/03/11 02:35:02;;;;;;;0.00;0.00;;;;;;;;;;5115186;28;20110;-64
2024/03/11 02:37:28;;;;;;;0.15;0.15;;;;;;;;;;5097186;28;20020;-63
2024/03/11 02:39:53;;;;;;;0.20;0.17;;;;;;;;;;5098520;28;20387;-64
2024/03/11 02:42:19;;;;;;;0.10;0.10;;;;;;;;;;5114902;28;20054;-64
2024/03/11 02:44:44;;;;;;;0.00;0.00;;;;;;;;;;5114750;28;20295;-64
2024/03/11 02:47:10;;;;;;;0.10;0.10;;;;;;;;;;5110224;28;20020;-64
2024/03/11 02:49:35;;;;;;;0.10;0.10;;;;;;;;;;5111301;28;20030;-64
2024/03/11 02:52:00;;;;;;;0.07;0.07;;;;;;;;;;5095148;28;20398;-64
2024/03/11 02:54:26;;;;;;;0.00;0.00;;;;;;;;;;5100067;28;20031;-64
2024/03/11 02:56:52;;;;;;;0.08;0.08;;;;;;;;;;5114180;28;20275;-63
2024/03/11 02:59:27;;;;;;;0.17;0.17;;;;;;;;;;5114470;28;20069;-64
2024/03/11 03:01:52;;;;;;;0.00;0.00;;;;;;;;;;5114468;28;20024;-63
2024/03/11 03:04:20;;;;;;;0.03;0.03;;;;;;;;;;5112156;28;20045;-64
2024/03/11 03:06:45;;;;;;;0.00;0.00;;;;;;;;;;5094588;28;20024;-64
2024/03/11 03:09:10;;;;;;;0.10;0.10;;;;;;;;;;5094770;28;20081;-63
2024/03/11 03:11:37;;;;;;;0.00;0.00;;;;;;;;;;5094468;28;20265;-64
2024/03/11 03:14:02;;;;;;;0.52;0.30;;;;;;;;;;5107542;28;20016;-64
2024/03/11 03:16:27;;;;;;;0.00;0.00;;;;;;;;;;5112805;28;20020;-64
2024/03/11 03:18:54;;;;;;;0.10;0.10;;;;;;;;;;5112129;28;20059;-64
2024/03/11 03:21:19;;;;;;;0.10;0.10;;;;;;;;;;5113821;28;20049;-64
2024/03/11 03:23:44;;;;;;;0.43;0.43;;;;;;;;;;5114108;28;20024;-64
2024/03/11 03:26:09;;;;;;;0.30;0.30;;;;;;;;;;5104823;28;20027;-64
2024/03/11 03:28:34;;;;;;;0.10;0.10;;;;;;;;;;5094207;28;20031;-64
2024/03/11 03:31:00;;;;;;;0.10;0.10;;;;;;;;;;5094114;28;20263;-64
2024/03/11 03:33:26;;;;;;;0.00;0.00;;;;;;;;;;5103909;28;20553;-64
2024/03/11 03:35:51;;;;;;;0.00;0.00;;;;;;;;;;5100527;28;20268;-64
2024/03/11 03:38:16;;;;;;;0.10;0.10;;;;;;;;;;5094058;28;20087;-64
2024/03/11 03:40:42;;;;;;;0.10;0.10;;;;;;;;;;5112872;28;20496;-64
2024/03/11 03:43:07;;;;;;;0.10;0.10;;;;;;;;;;5108469;28;20012;-64
2024/03/11 03:45:33;;;;;;;0.10;0.10;;;;;;;;;;5093898;28;20054;-64
2024/03/11 03:47:58;;;;;;;0.00;0.00;;;;;;;;;;5105513;28;20376;-64
2024/03/11 03:50:24;;;;;;;0.20;0.20;;;;;;;;;;5113862;28;20042;-64
2024/03/11 03:52:49;;;;;;;0.05;0.05;;;;;;;;;;5113501;28;20027;-64
2024/03/11 03:55:15;;;;;;;0.00;0.00;;;;;;;;;;5113763;28;20019;-64
2024/03/11 03:57:42;;;;;;;0.00;0.00;;;;;;;;;;5113434;28;20023;-64
2024/03/11 04:00:17;;;;;;;0.10;0.10;;;;;;;;;;5113117;28;20080;-64
2024/03/11 04:02:47;;;;;;;0.10;0.10;;;;;;;;;;5100574;28;20525;-64
2024/03/11 04:05:12;;;;;;;0.10;0.10;;;;;;;;;;5101398;28;20081;-64
2024/03/11 04:07:40;;;;;;;0.10;0.10;;;;;;;;;;5093926;28;20032;-64
2024/03/11 04:10:06;;;;;;;0.00;0.00;;;;;;;;;;5105029;28;20028;-64
2024/03/11 04:12:31;;;;;;;0.10;0.10;;;;;;;;;;5113677;28;20394;-64
2024/03/11 04:14:56;;;;;;;0.10;0.10;;;;;;;;;;5113847;28;20103;-64
2024/03/11 04:17:22;;;;;;;0.10;0.10;;;;;;;;;;5104025;28;20028;-64
2024/03/11 04:19:48;;;;;;;0.55;0.55;;;;;;;;;;5093134;28;20430;-64
2024/03/11 04:22:14;;;;;;;0.15;0.15;;;;;;;;;;5093661;28;20027;-64
2024/03/11 04:24:39;;;;;;;0.00;0.00;;;;;;;;;;5093555;28;20016;-64
2024/03/11 04:27:05;;;;;;;0.15;0.13;;;;;;;;;;5093222;28;20024;-64
2024/03/11 04:29:30;;;;;;;0.00;0.00;;;;;;;;;;5093564;28;20024;-64
2024/03/11 04:31:57;;;;;;;0.03;0.03;;;;;;;;;;5094335;28;20036;-64
2024/03/11 04:34:22;;;;;;;0.00;0.00;;;;;;;;;;5093535;28;20028;-64
2024/03/11 04:36:48;;;;;;;0.17;0.17;;;;;;;;;;5093139;28;20050;-64
2024/03/11 04:39:14;;;;;;;0.00;0.00;;;;;;;;;;5093378;28;20275;-63
2024/03/11 04:41:42;;;;;;;0.20;0.20;;;;;;;;;;5093056;28;20027;-64
2024/03/11 04:44:08;;;;;;;0.00;0.00;;;;;;;;;;5105403;28;20016;-64
2024/03/11 04:46:33;;;;;;;0.10;0.10;;;;;;;;;;5103953;28;20038;-64
2024/03/11 04:48:58;;;;;;;0.03;0.03;;;;;;;;;;5112969;28;20084;-64
2024/03/11 04:51:23;;;;;;;0.20;0.20;;;;;;;;;;5112468;28;20290;-64
2024/03/11 04:53:49;;;;;;;0.13;0.13;;;;;;;;;;5101200;28;20031;-64
2024/03/11 04:56:15;;;;;;;1.38;1.27;;;;;;;;;;5092915;28;20024;-64
2024/03/11 04:58:40;;;;;;;0.00;0.00;;;;;;;;;;5094401;28;20024;-63
2024/03/11 05:01:06;;;;;;;0.00;0.00;;;;;;;;;;5105715;28;20027;-63
2024/03/11 05:03:31;;;;;;;0.77;0.77;;;;;;;;;;5112744;28;20023;-63
2024/03/11 05:05:57;;;;;;;0.10;0.10;;;;;;;;;;5112049;28;20020;-63
2024/03/11 05:08:22;;;;;;;0.37;0.30;;;;;;;;;;5112756;28;20064;-63
2024/03/11 05:10:47;;;;;;;0.03;0.03;;;;;;;;;;5109868;28;20081;-63
2024/03/11 05:13:14;;;;;;;0.33;0.33;;;;;;;;;;5112577;28;20281;-64
2024/03/11 05:15:39;;;;;;;0.00;0.00;;;;;;;;;;5100781;28;20801;-64
2024/03/11 05:18:04;;;;;;;0.45;0.45;;;;;;;;;;5105545;28;20031;-63
2024/03/11 05:20:30;;;;;;;0.27;0.27;;;;;;;;;;5115915;28;20086;-63
2024/03/11 05:22:55;;;;;;;0.23;0.23;;;;;;;;;;5102668;28;20292;-63
2024/03/11 05:25:21;;;;;;;0.30;0.30;;;;;;;;;;5096577;28;20026;-63
2024/03/11 05:27:47;;;;;;;0.10;0.10;;;;;;;;;;5096784;28;20081;-63
2024/03/11 05:30:13;;;;;;;0.40;0.32;;;;;;;;;;5112810;28;20111;-63
2024/03/11 05:32:38;;;;;;;0.10;0.10;;;;;;;;;;5115840;28;20095;-64
2024/03/11 05:35:03;;;;;;;0.40;0.32;;;;;;;;;;5116209;28;20031;-63
2024/03/11 05:37:29;;;;;;;0.25;0.25;;;;;;;;;;5116112;28;20044;-63
2024/03/11 05:39:54;;;;;;;0.20;0.20;;;;;;;;;;5116010;28;20104;-63
2024/03/11 05:42:19;;;;;;;0.05;0.05;;;;;;;;;;5116105;28;20071;-64
2024/03/11 05:44:45;;;;;;;0.20;0.20;;;;;;;;;;5098520;28;20028;-63
2024/03/11 05:47:11;;;;;;;0.28;0.28;;;;;;;;;;5096413;28;20267;-63
2024/03/11 05:49:37;;;;;;;0.05;0.05;;;;;;;;;;5102898;28;20024;-64
2024/03/11 05:52:03;;;;;;;0.85;0.60;;;;;;;;;;5115803;28;20449;-64
2024/03/11 05:54:28;;;;;;;0.00;0.00;;;;;;;;;;5116106;28;20023;-63
2024/03/11 05:56:54;;;;;;;0.10;0.10;;;;;;;;;;5099796;28;20060;-63
2024/03/11 05:59:23;;;;;;;0.43;0.43;;;;;;;;;;5114584;28;20024;-63
2024/03/11 06:01:49;;;;;;;0.10;0.10;;;;;;;;;;5115975;28;20099;-63
2024/03/11 06:04:14;;;;;;;0.40;0.40;;;;;;;;;;5115301;28;20443;-64
2024/03/11 06:06:43;;;;;;;0.30;0.30;;;;;;;;;;5096730;28;20038;-64
2024/03/11 06:09:09;;;;;;;0.10;0.10;;;;;;;;;;5115855;28;20094;-64
2024/03/11 06:11:38;;;;;;;5.00;0.75;;;;;;;;;;5114400;28;20475;-64
2024/03/11 06:14:03;;;;;;;0.10;0.10;;;;;;;;;;5115384;28;20399;-64
2024/03/11 06:16:28;;;;;;;0.20;0.20;;;;;;;;;;5102203;28;20038;-63
2024/03/11 06:18:53;;;;;;;0.10;0.10;;;;;;;;;;5095329;28;20252;-63
2024/03/11 06:21:19;;;;;;;0.47;0.27;;;;;;;;;;5114808;28;20039;-64
2024/03/11 06:23:44;;;;;;;0.23;0.23;;;;;;;;;;5115333;28;20046;-64
2024/03/11 06:26:09;;;;;;;0.10;0.10;;;;;;;;;;5105180;28;20024;-64
2024/03/11 06:28:34;;;;;;;0.30;0.30;;;;;;;;;;5095435;28;20030;-64
2024/03/11 06:30:59;;;;;;;0.10;0.10;;;;;;;;;;5095357;28;20392;-64
2024/03/11 06:33:25;;;;;;;0.20;0.20;;;;;;;;;;5095422;28;20032;-63
2024/03/11 06:35:50;;;;;;;0.45;0.45;;;;;;;;;;5095420;28;20079;-63
2024/03/11 06:38:16;;;;;;;0.20;0.20;;;;;;;;;;5095191;28;20094;-64
2024/03/11 06:40:41;;;;;;;4.10;1.08;;;;;;;;;;5104168;28;20019;-64
2024/03/11 06:43:06;;;;;;;0.23;0.23;;;;;;;;;;5114835;28;20023;-64
2024/03/11 06:45:31;;;;;;;0.40;0.20;;;;;;;;;;5114957;28;20070;-63
2024/03/11 06:47:57;;;;;;;0.10;0.10;;;;;;;;;;5114439;28;20110;-64
2024/03/11 06:50:22;;;;;;;0.07;0.07;;;;;;;;;;5114509;28;20024;-64
2024/03/11 06:52:47;;;;;;;0.20;0.20;;;;;;;;;;5114664;28;20256;-64
2024/03/11 06:55:13;;;;;;;0.22;0.22;;;;;;;;;;5106537;28;20027;-66
2024/03/11 06:57:41;;;;;;;0.10;0.10;;;;;;;;;;5114212;28;20038;-66
2024/03/11 07:00:17;;;;;;;0.03;0.03;;;;;;;;;;5114501;28;20424;-66
2024/03/11 07:02:42;;;;;;;0.00;0.00;;;;;;;;;;5114512;28;20022;-66
2024/03/11 07:05:09;;;;;;;0.10;0.10;;;;;;;;;;5114593;28;20374;-66
2024/03/11 07:07:35;;;;;;;0.10;0.10;;;;;;;;;;5105940;28;20114;-66
2024/03/11 07:10:01;;;;;;;0.20;0.20;;;;;;;;;;5100591;28;20107;-66
2024/03/11 07:12:26;;;;;;;2.23;0.60;;;;;;;;;;5094421;28;20024;-66
2024/03/11 07:14:51;;;;;;;0.20;0.20;;;;;;;;;;5105850;28;20267;-66
2024/03/11 07:17:16;;;;;;;0.40;0.40;;;;;;;;;;5114451;28;20305;-66
2024/03/11 07:19:41;;;;;;;0.13;0.13;;;;;;;;;;5113935;28;20047;-66
2024/03/11 07:22:07;;;;;;;0.83;0.50;;;;;;;;;;5114176;28;20328;-66
2024/03/11 07:24:32;;;;;;;3.65;0.45;;;;;;;;;;5099246;28;20245;-66
2024/03/11 07:26:58;;;;;;;0.10;0.10;;;;;;;;;;5094236;28;20028;-66
2024/03/11 07:29:23;;;;;;;0.67;0.67;;;;;;;;;;5094215;28;20031;-66
2024/03/11 07:31:48;;;;;;;0.10;0.10;;;;;;;;;;5086157;28;20047;-66
2024/03/11 07:34:14;;;;;;;0.20;0.20;;;;;;;;;;5092240;28;20043;-66
2024/03/11 07:36:39;;;;;;;0.10;0.10;;;;;;;;;;5094165;28;20028;-66
2024/03/11 07:39:04;;;;;;;0.17;0.17;;;;;;;;;;5109791;28;20026;-66
2024/03/11 07:41:30;;;;;;;0.30;0.30;;;;;;;;;;5103380;28;20095;-66
2024/03/11 07:43:56;;;;;;;0.10;0.10;;;;;;;;;;5094198;28;20447;-66
2024/03/11 07:46:21;;;;;;;0.63;0.63;;;;;;;;;;5093895;28;20059;-65
2024/03/11 07:48:46;;;;;;;0.07;0.07;;;;;;;;;;5093834;28;20119;-66
2024/03/11 07:51:13;;;;;;;0.20;0.20;;;;;;;;;;5095146;28;20034;-66
2024/03/11 07:53:38;;;;;;;0.43;0.43;;;;;;;;;;5093726;28;20065;-66
2024/03/11 07:56:04;;;;;;;0.40;0.40;;;;;;;;;;5106614;28;20032;-66
2024/03/11 07:58:29;;;;;;;0.10;0.10;;;;;;;;;;5099345;28;20020;-66
2024/03/11 08:00:54;;;;;;;0.30;0.30;;;;;;;;;;5082378;28;20054;-65
2024/03/11 08:03:20;;;;;;;0.50;0.50;;;;;;;;;;5086808;28;20400;-66
2024/03/11 08:05:45;;;;;;;0.00;0.00;;;;;;;;;;5089757;28;20590;-65
2024/03/11 08:08:11;;;;;;;1.17;0.80;;;;;;;;;;5083984;28;20031;-65
2024/03/11 08:10:36;;;;;;;0.25;0.25;;;;;;;;;;5091451;28;20430;-65
2024/03/11 08:13:02;;;;;;;1.07;0.47;;;;;;;;;;5083207;28;20111;-65
2024/03/11 08:15:27;;;;;;;0.10;0.10;;;;;;;;;;5086372;28;20302;-65
2024/03/11 08:17:52;;;;;;;0.20;0.20;;;;;;;;;;5086035;28;20269;-65
2024/03/11 08:20:18;;;;;;;0.28;0.28;;;;;;;;;;5092645;28;20276;-65
2024/03/11 08:22:45;;;;;;;0.17;0.17;;;;;;;;;;5088261;28;20114;-65
2024/03/11 08:25:13;;;;;;;0.10;0.10;;;;;;;;;;5092608;28;20025;-65
2024/03/11 08:27:39;;;;;;;0.20;0.20;;;;;;;;;;5078863;28;20484;-65
2024/03/11 08:30:07;;;;;;;0.03;0.03;;;;;;;;;;5084610;28;20108;-65
2024/03/11 08:32:32;;;;;;;0.32;0.32;;;;;;;;;;5092438;28;20027;-65
2024/03/11 08:34:58;;;;;;;0.30;0.30;;;;;;;;;;5092594;28;20020;-65
2024/03/11 08:37:24;;;;;;;1.52;0.47;;;;;;;;;;5092928;28;20264;-65
2024/03/11 08:39:49;;;;;;;1.07;0.60;;;;;;;;;;5090590;28;20041;-65
2024/03/11 08:42:14;;;;;;;0.40;0.40;;;;;;;;;;5090071;28;20460;-65
2024/03/11 08:44:43;;;;;;;0.13;0.13;;;;;;;;;;5083292;28;20307;-65
2024/03/11 08:47:11;;;;;;;0.20;0.20;;;;;;;;;;5084988;28;20028;-64
2024/03/11 08:49:36;;;;;;;0.08;0.08;;;;;;;;;;5094663;28;20107;-64
2024/03/11 08:52:01;;;;;;;0.13;0.13;;;;;;;;;;5095232;28;20102;-64
2024/03/11 08:54:28;;;;;;;0.33;0.33;;;;;;;;;;5096738;28;20356;-64
2024/03/11 08:56:56;;;;;;;0.88;0.63;;;;;;;;;;5096664;28;20304;-64
2024/03/11 08:59:21;;;;;;;0.15;0.15;;;;;;;;;;5087529;28;20367;-64
2024/03/11 09:01:46;;;;;;;0.20;0.20;;;;;;;;;;5096260;28;20020;-64
2024/03/11 09:04:12;;;;;;;1.17;0.60;;;;;;;;;;5094239;28;20344;-64
2024/03/11 09:06:41;;;;;;;2.07;0.40;;;;;;;;;;5095259;28;20027;-64
2024/03/11 09:09:07;;;;;;;0.20;0.20;;;;;;;;;;5096701;28;20610;-65
2024/03/11 09:11:32;;;;;;;0.45;0.45;;;;;;;;;;5094848;28;20028;-64
2024/03/11 09:13:58;;;;;;;0.40;0.40;;;;;;;;;;5089358;28;20031;-65
2024/03/11 09:16:23;;;;;;;0.17;0.17;;;;;;;;;;5094545;28;20112;-66
2024/03/11 09:18:48;;;;;;;0.10;0.10;;;;;;;;;;5094842;28;20475;-66
2024/03/11 09:21:14;;;;;;;0.00;0.00;;;;;;;;;;5085110;28;20044;-66
2024/03/11 09:23:39;;;;;;;0.30;0.30;;;;;;;;;;5095536;28;20444;-66
2024/03/11 09:26:09;;;;;;;0.10;0.10;;;;;;;;;;5093204;28;20436;-65
2024/03/11 09:28:35;;;;;;;0.20;0.20;;;;;;;;;;5088430;28;20604;-66
2024/03/11 09:31:00;;;;;;;0.40;0.40;;;;;;;;;;5087462;28;20013;-66
2024/03/11 09:33:25;;;;;;;0.60;0.40;;;;;;;;;;5095933;28;20017;-66
2024/03/11 09:35:50;;;;;;;5.10;0.17;;;;;;;;;;5089440;28;20077;-66
2024/03/11 09:38:16;;;;;;;0.20;0.20;;;;;;;;;;5095539;28;20028;-66
2024/03/11 09:40:41;;;;;;;1.00;0.65;;;;;;;;;;5088291;28;20303;-66
2024/03/11 09:43:11;;;;;;;2.78;0.73;;;;;;;;;;5088579;28;20020;-66
2024/03/11 09:45:40;;;;;;;0.00;0.00;;;;;;;;;;5087137;28;20356;-66
2024/03/11 09:48:05;;;;;;;0.45;0.45;;;;;;;;;;5091474;28;20115;-66
2024/03/11 09:50:32;;;;;;;0.70;0.52;;;;;;;;;;5076170;28;20070;-66
2024/03/11 09:53:03;;;;;;;0.03;0.03;;;;;;;;;;5084310;28;20028;-66
2024/03/11 09:55:28;;;;;;;0.20;0.20;;;;;;;;;;5095451;28;20027;-66
2024/03/11 09:57:55;;;;;;;0.00;0.00;;;;;;;;;;5087047;28;20024;-66
2024/03/11 10:00:24;;;;;;;0.15;0.15;;;;;;;;;;5094005;28;20020;-66
2024/03/11 10:02:54;;;;;;;0.20;0.20;;;;;;;;;;5086844;28;20016;-66
2024/03/11 10:05:22;;;;;;;0.35;0.32;;;;;;;;;;5095568;28;20035;-66
2024/03/11 10:07:48;;;;;;;0.30;0.22;;;;;;;;;;5095134;28;20491;-66
2024/03/11 10:10:14;;;;;;;0.30;0.30;;;;;;;;;;5093882;28;20064;-66
2024/03/11 10:12:53;;;;;;;0.50;0.45;;;;;;;;;;5095143;28;20066;-66
2024/03/11 10:15:28;;;;;;;0.15;0.15;;;;;;;;;;5088306;28;20112;-66
2024/03/11 10:17:54;;;;;;;0.82;0.20;;;;;;;;;;5094450;28;20502;-66
2024/03/11 10:20:23;;;;;;;1.00;0.40;;;;;;;;;;5083473;28;20047;-66
2024/03/11 10:22:49;;;;;;;0.40;0.40;;;;;;;;;;5083974;28;20039;-65
2024/03/11 10:25:21;;;;;;;0.30;0.30;;;;;;;;;;5091957;28;20460;-64
2024/03/11 10:27:47;;;;;;;0.10;0.10;;;;;;;;;;5086776;28;20260;-63
2024/03/11 10:30:23;;;;;;;0.25;0.25;;;;;;;;;;5092368;28;20106;-64
2024/03/11 10:33:01;;;;;;;0.32;0.25;;;;;;;;;;5082292;28;20054;-64
2024/03/11 10:35:27;;;;;;;0.00;0.00;;;;;;;;;;5087004;28;20027;-63
2024/03/11 10:38:05;;;;;;;0.35;0.22;;;;;;;;;;5096798;28;20086;-64
2024/03/11 10:40:31;;;;;;;0.10;0.10;;;;;;;;;;5093245;28;20023;-64
2024/03/11 10:42:58;;;;;;;0.10;0.10;;;;;;;;;;5080301;28;20039;-64
2024/03/11 10:45:33;;;;;;;0.20;0.20;;;;;;;;;;5086385;28;20050;-64
2024/03/11 10:48:02;;;;;;;0.30;0.30;;;;;;;;;;5087918;28;20022;-64
2024/03/11 10:50:28;;;;;;;0.13;0.13;;;;;;;;;;5091152;28;20103;-64
2024/03/11 10:52:57;;;;;;;0.08;0.08;;;;;;;;;;5086165;28;20051;-64
2024/03/11 10:55:24;;;;;;;0.22;0.22;;;;;;;;;;5091054;28;20059;-64
2024/03/11 10:57:52;;;;;;;0.13;0.13;;;;;;;;;;5083972;28;20064;-64
2024/03/11 11:02:43;;;;;;;0.47;0.47;;;;;;;;;;5093794;28;20047;-64
2024/03/11 11:05:09;;;;;;;0.00;0.00;;;;;;;;;;5093747;28;20020;-63
2024/03/11 11:07:34;;;;;;;0.30;0.30;;;;;;;;;;5072873;28;20031;-63
2024/03/11 11:10:03;;;;;;;0.63;0.63;;;;;;;;;;5079657;28;20059;-64
2024/03/11 11:12:29;;;;;;;0.13;0.13;;;;;;;;;;5084823;28;20265;-64
2024/03/11 11:15:02;;;;;;;0.10;0.10;;;;;;;;;;5090440;28;20028;-63
2024/03/11 11:17:29;;;;;;;0.65;0.55;;;;;;;;;;5094019;28;20032;-63
2024/03/11 11:19:56;;;;;;;0.63;0.55;;;;;;;;;;5092251;28;20496;-63
2024/03/11 11:22:21;;;;;;;0.10;0.10;;;;;;;;;;5067603;28;20104;-63
2024/03/11 11:24:47;;;;;;;0.10;0.10;;;;;;;;;;5085973;28;20062;-64
2024/03/11 11:27:15;;;;;;;0.50;0.30;;;;;;;;;;5084321;28;20408;-63
2024/03/11 11:29:40;;;;;;;0.10;0.10;;;;;;;;;;5080155;28;20107;-63
2024/03/11 11:32:07;;;;;;;0.00;0.00;;;;;;;;;;5080308;28;20109;-63
2024/03/11 11:34:44;;;;;;;0.32;0.32;;;;;;;;;;5089821;28;20024;-65
2024/03/11 11:37:12;;;;;;;0.57;0.57;;;;;;;;;;5085721;28;20463;-66
2024/03/11 11:39:39;;;;;;;0.60;0.50;;;;;;;;;;5086864;28;20016;-66
2024/03/11 11:42:06;;;;;;;0.22;0.22;;;;;;;;;;5083090;28;20168;-66
2024/03/11 11:44:31;;;;;;;0.30;0.30;;;;;;;;;;5082465;28;20021;-65
2024/03/11 11:47:14;;;;;;;0.28;0.28;;;;;;;;;;5093686;28;20380;-66
2024/03/11 11:49:42;;;;;;;0.43;0.43;;;;;;;;;;5092491;28;20035;-65
2024/03/11 11:52:10;;;;;;;0.30;0.30;;;;;;;;;;5093356;28;20016;-66
2024/03/11 11:54:35;;;;;;;0.38;0.30;;;;;;;;;;5086459;28;20035;-65
2024/03/11 11:57:13;;;;;;;0.30;0.30;;;;;;;;;;5073329;28;20024;-66
2024/03/11 11:59:40;;;;;;;0.32;0.25;;;;;;;;;;5072511;28;20035;-66
2024/03/11 12:02:13;;;;;;;0.13;0.13;;;;;;;;;;5073421;28;20024;-65
2024/03/11 12:04:47;;;;;;;0.50;0.47;;;;;;;;;;5072836;28;20419;-65
2024/03/11 12:07:12;;;;;;;0.47;0.45;;;;;;;;;;5073247;28;20028;-66
2024/03/11 12:09:46;;;;;;;0.08;0.08;;;;;;;;;;5078617;28;20122;-65
2024/03/11 12:12:11;;;;;;;0.30;0.30;;;;;;;;;;5072455;28;20403;-65
2024/03/11 12:14:36;;;;;;;0.33;0.33;;;;;;;;;;5073979;28;20069;-65
2024/03/11 12:17:07;;;;;;;0.03;0.03;;;;;;;;;;5087893;28;20311;-66
2024/03/11 12:19:32;;;;;;;0.38;0.38;;;;;;;;;;5073110;28;20031;-65
2024/03/11 12:21:58;;;;;;;0.10;0.10;;;;;;;;;;5073460;28;20416;-66
2024/03/11 12:24:23;;;;;;;0.45;0.22;;;;;;;;;;5072580;28;20028;-66
2024/03/11 12:26:50;;;;;;;0.30;0.30;;;;;;;;;;5072641;28;20028;-65
2024/03/11 12:29:16;;;;;;;0.15;0.15;;;;;;;;;;5072152;28;20028;-66
2024/03/11 12:31:42;;;;;;;0.10;0.10;;;;;;;;;;5072782;28;20035;-65
2024/03/11 12:34:13;;;;;;;0.30;0.30;;;;;;;;;;5072547;28;20527;-66
2024/03/11 12:36:46;;;;;;;0.20;0.20;;;;;;;;;;5078515;28;20024;-65
2024/03/11 12:39:25;;;;;;;0.10;0.10;;;;;;;;;;5092928;28;20430;-66
2024/03/11 12:41:51;;;;;;;0.13;0.13;;;;;;;;;;5092423;28;20032;-66
2024/03/11 12:44:19;;;;;;;0.22;0.22;;;;;;;;;;5077357;28;20380;-63
2024/03/11 12:46:45;;;;;;;0.17;0.17;;;;;;;;;;5078729;28;20111;-63
2024/03/11 12:49:11;;;;;;;0.50;0.30;;;;;;;;;;5080903;28;20123;-63
2024/03/11 12:51:40;;;;;;;0.20;0.20;;;;;;;;;;5082523;28;20491;-63
2024/03/11 12:54:18;;;;;;;0.13;0.13;;;;;;;;;;5091673;28;20515;-63
2024/03/11 12:56:47;;;;;;;0.10;0.10;;;;;;;;;;5091692;28;20020;-64
2024/03/11 12:59:13;;;;;;;0.30;0.30;;;;;;;;;;5085450;28;20482;-63
2024/03/11 13:01:41;;;;;;;0.08;0.08;;;;;;;;;;5083117;28;20095;-63
2024/03/11 13:04:19;;;;;;;0.10;0.10;;;;;;;;;;5112861;28;20023;-63
2024/03/11 13:06:44;;;;;;;0.30;0.30;;;;;;;;;;5101397;28;20032;-63
2024/03/11 13:09:36;;;;;;;0.50;0.50;;;;;;;;;;5092414;28;20025;-63
2024/03/11 13:12:03;;;;;;;0.25;0.17;;;;;;;;;;5076534;28;20044;-63
2024/03/11 13:14:28;;;;;;;1.40;0.40;;;;;;;;;;5087188;28;20028;-64
2024/03/11 13:16:53;;;;;;;0.30;0.30;;;;;;;;;;5091661;28;20078;-63
2024/03/11 13:19:25;;;;;;;0.00;0.00;;;;;;;;;;5090967;28;20079;-63
2024/03/11 13:21:54;;;;;;;0.68;0.65;;;;;;;;;;5089364;28;20079;-64
2024/03/11 13:24:23;;;;;;;0.05;0.05;;;;;;;;;;5083923;28;20032;-63
2024/03/11 13:26:49;;;;;;;0.30;0.30;;;;;;;;;;5091810;28;20032;-63
2024/03/11 13:29:14;;;;;;;0.00;0.00;;;;;;;;;;5067825;28;20035;-63
2024/03/11 13:31:40;;;;;;;0.25;0.25;;;;;;;;;;5077267;28;20035;-63
2024/03/11 13:34:05;;;;;;;0.20;0.20;;;;;;;;;;5089984;28;20028;-63
2024/03/11 13:36:31;;;;;;;0.23;0.20;;;;;;;;;;5084929;28;20047;-63
2024/03/11 13:38:57;;;;;;;0.28;0.28;;;;;;;;;;5087876;28;20257;-63
2024/03/11 13:41:30;;;;;;;3.20;0.93;;;;;;;;;;5087482;28;20357;-63
2024/03/11 13:43:55;;;;;;;0.05;0.05;;;;;;;;;;5095951;28;20889;-63
2024/03/11 13:46:20;;;;;;;0.10;0.10;;;;;;;;;;5094288;28;20020;-63
2024/03/11 13:48:46;;;;;;;0.38;0.25;;;;;;;;;;5087493;28;20023;-63
2024/03/11 13:51:13;;;;;;;0.30;0.30;;;;;;;;;;5086966;28;20012;-63
2024/03/11 13:53:38;;;;;;;0.22;0.20;;;;;;;;;;5094192;28;20046;-63
2024/03/11 13:56:05;;;;;;;0.20;0.20;;;;;;;;;;5090851;28;20461;-63
2024/03/11 13:58:30;;;;;;;0.10;0.10;;;;;;;;;;5091941;28;20020;-63
2024/03/11 14:00:56;;;;;;;0.10;0.10;;;;;;;;;;5087106;28;20144;-63
2024/03/11 14:03:21;;;;;;;0.10;0.10;;;;;;;;;;5085905;28;20264;-63
2024/03/11 14:05:47;;;;;;;0.20;0.20;;;;;;;;;;5088058;28;20020;-63
2024/03/11 14:08:13;;;;;;;0.00;0.00;;;;;;;;;;5095009;28;20264;-63
2024/03/11 14:10:39;;;;;;;0.10;0.10;;;;;;;;;;5090573;28;20021;-63
2024/03/11 14:13:05;;;;;;;0.10;0.10;;;;;;;;;;5083809;28;20031;-63
2024/03/11 14:15:30;;;;;;;0.10;0.10;;;;;;;;;;5084042;28;20043;-63
2024/03/11 14:17:57;;;;;;;0.35;0.35;;;;;;;;;;5086565;28;20103;-63
2024/03/11 14:20:24;;;;;;;0.00;0.00;;;;;;;;;;5087222;28;20042;-63
2024/03/11 14:22:50;;;;;;;0.32;0.32;;;;;;;;;;5095081;28;20487;-63
2024/03/11 14:25:16;;;;;;;0.05;0.05;;;;;;;;;;5089188;28;20111;-63
2024/03/11 14:27:45;;;;;;;0.10;0.10;;;;;;;;;;5090297;28;20020;-63
2024/03/11 14:30:14;;;;;;;0.10;0.10;;;;;;;;;;5082439;28;20031;-63
2024/03/11 14:32:39;;;;;;;0.13;0.13;;;;;;;;;;5084757;28;20078;-63
2024/03/11 14:35:07;;;;;;;0.13;0.13;;;;;;;;;;5084937;28;20478;-63
2024/03/11 14:37:32;;;;;;;0.17;0.17;;;;;;;;;;5091377;28;20024;-63
2024/03/11 14:39:57;;;;;;;0.63;0.30;;;;;;;;;;5076756;28;20024;-63
2024/03/11 14:42:29;;;;;;;0.43;0.30;;;;;;;;;;5083294;28;20647;-63